createdAt,value
2018-07-19T00:01:20.218Z,3.37
2018-07-19T00:03:50.845Z,3.12
2018-07-19T00:06:20.255Z,3.67
2018-07-19T00:08:49.903Z,3.50
2018-07-19T00:11:20.954Z,3.70
2018-07-19T00:13:50.729Z,3.20
2018-07-19T00:16:20.399Z,3.23
2018-07-19T00:18:50.491Z,3.00
2018-07-19T00:21:20.687Z,3.67
2018-07-19T00:23:50.294Z,3.27
2018-07-19T00:26:20.211Z,3.10
2018-07-19T00:28:49.716Z,3.60
2018-07-19T00:31:18.724Z,3.47
2018-07-19T00:33:47.259Z,3.70
2018-07-19T00:36:16.231Z,3.60
2018-07-19T00:38:44.791Z,3.50
2018-07-19T00:41:15.639Z,4.63
2018-07-19T00:43:44.281Z,3.10
2018-07-19T00:46:13.217Z,3.27
2018-07-19T00:48:41.784Z,4.00
2018-07-19T00:51:10.696Z,3.83
2018-07-19T00:53:39.252Z,3.20
2018-07-19T00:56:07.873Z,3.07
2018-07-19T00:58:38.655Z,3.10
2018-07-19T01:01:07.477Z,3.70
2018-07-19T01:03:36.068Z,4.40
2018-07-19T01:06:06.419Z,3.53
2018-07-19T01:08:35.051Z,3.77
2018-07-19T01:11:03.637Z,3.50
2018-07-19T01:13:32.177Z,3.25
2018-07-19T01:16:02.154Z,4.17
2018-07-19T01:18:30.774Z,4.10
2018-07-19T01:20:59.366Z,3.83
2018-07-19T01:23:27.928Z,4.00
2018-07-19T01:25:56.551Z,3.83
2018-07-19T01:28:25.212Z,4.17
2018-07-19T01:30:53.812Z,4.07
2018-07-19T01:33:22.520Z,4.17
2018-07-19T01:35:51.681Z,3.80
2018-07-19T01:38:20.553Z,4.00
2018-07-19T01:40:50.681Z,3.80
2018-07-19T01:43:19.379Z,3.80
2018-07-19T01:45:47.972Z,3.87
2018-07-19T01:48:16.493Z,4.17
2018-07-19T01:50:45.056Z,4.23
2018-07-19T01:53:13.589Z,4.43
2018-07-19T01:55:42.156Z,4.07
2018-07-19T01:58:10.701Z,4.50
2018-07-19T02:00:39.260Z,3.80
2018-07-19T02:03:07.813Z,4.37
2018-07-19T02:05:36.341Z,4.22
2018-07-19T02:08:04.925Z,3.80
2018-07-19T02:10:33.446Z,4.17
2018-07-19T02:13:02.032Z,4.07
2018-07-19T02:15:30.565Z,3.80
2018-07-19T02:17:59.136Z,4.43
2018-07-19T02:20:27.652Z,4.20
2018-07-19T02:22:56.228Z,4.13
2018-07-19T02:25:24.759Z,4.27
2018-07-19T02:27:53.579Z,3.93
2018-07-19T02:30:22.092Z,3.77
2018-07-19T02:32:51.640Z,4.07
2018-07-19T02:35:20.168Z,4.80
2018-07-19T02:37:48.769Z,4.70
2018-07-19T02:40:17.320Z,4.40
2018-07-19T02:42:45.878Z,4.20
2018-07-19T02:45:14.402Z,4.73
2018-07-19T02:47:42.968Z,4.40
2018-07-19T02:50:11.512Z,4.97
2018-07-19T02:52:40.125Z,4.77
2018-07-19T02:55:08.712Z,4.33
2018-07-19T02:57:37.353Z,4.37
2018-07-19T03:00:06.028Z,4.95
2018-07-19T03:02:34.616Z,4.90
2018-07-19T03:05:03.176Z,4.75
2018-07-19T03:07:31.748Z,4.90
2018-07-19T03:10:00.272Z,4.73
2018-07-19T03:12:28.824Z,4.40
2018-07-19T03:14:57.358Z,4.60
2018-07-19T03:17:25.925Z,4.77
2018-07-19T03:19:54.455Z,4.70
2018-07-19T03:22:23.412Z,5.30
2018-07-19T03:24:51.940Z,5.03
2018-07-19T03:27:20.495Z,5.70
2018-07-19T03:29:48.999Z,4.83
2018-07-19T03:32:17.568Z,5.43
2018-07-19T03:34:46.088Z,5.27
2018-07-19T03:37:14.689Z,4.80
2018-07-19T03:39:43.423Z,5.20
2018-07-19T03:42:11.984Z,4.63
2018-07-19T03:44:40.516Z,5.50
2018-07-19T03:47:09.073Z,5.00
2018-07-19T03:49:37.692Z,5.35
2018-07-19T03:52:06.307Z,5.40
2018-07-19T03:54:34.841Z,5.35
2018-07-19T03:57:03.425Z,5.10
2018-07-19T03:59:31.990Z,5.00
2018-07-19T04:02:00.877Z,5.42
2018-07-19T04:04:29.423Z,5.70
2018-07-19T04:06:57.960Z,5.60
2018-07-19T04:09:26.574Z,5.33
2018-07-19T04:11:55.100Z,5.73
2018-07-19T04:14:24.172Z,5.40
2018-07-19T04:16:52.688Z,5.17
2018-07-19T04:19:22.090Z,5.60
2018-07-19T04:21:50.642Z,6.17
2018-07-19T04:24:19.225Z,6.40
2018-07-19T04:26:47.744Z,6.30
2018-07-19T04:29:16.316Z,6.77
2018-07-19T04:31:44.847Z,5.80
2018-07-19T04:34:13.424Z,6.40
2018-07-19T04:36:41.977Z,5.67
2018-07-19T04:39:10.912Z,6.13
2018-07-19T04:41:39.462Z,5.65
2018-07-19T04:44:08.024Z,5.60
2018-07-19T04:46:36.648Z,6.07
2018-07-19T04:49:05.283Z,5.10
2018-07-19T04:51:33.812Z,5.37
2018-07-19T04:54:02.373Z,5.20
2018-07-19T04:56:30.889Z,5.87
2018-07-19T04:58:59.455Z,5.90
2018-07-19T05:01:27.984Z,5.93
2018-07-19T05:03:56.552Z,5.93
2018-07-19T05:06:25.095Z,6.07
2018-07-19T05:08:54.376Z,5.72
2018-07-19T05:11:22.907Z,5.67
2018-07-19T05:13:51.479Z,5.50
2018-07-19T05:16:20.030Z,5.97
2018-07-19T05:18:48.591Z,5.90
2018-07-19T05:21:17.126Z,5.03
2018-07-19T05:23:45.685Z,5.13
2018-07-19T05:26:14.326Z,5.50
2018-07-19T05:28:42.936Z,5.30
2018-07-19T05:31:11.460Z,5.40
2018-07-19T05:33:40.024Z,5.60
2018-07-19T05:36:09.000Z,4.80
2018-07-19T05:38:37.580Z,4.80
2018-07-19T05:41:06.388Z,5.17
2018-07-19T05:43:34.940Z,4.63
2018-07-19T05:46:03.465Z,5.17
2018-07-19T05:48:32.076Z,4.40
2018-07-19T05:51:00.583Z,4.70
2018-07-19T05:53:29.107Z,4.78
2018-07-19T05:55:57.663Z,5.20
2018-07-19T05:58:26.200Z,4.37
2018-07-19T06:00:54.761Z,4.30
2018-07-19T06:03:23.312Z,4.90
2018-07-19T06:05:51.864Z,4.60
2018-07-19T06:08:20.389Z,4.63
2018-07-19T06:10:48.945Z,5.00
2018-07-19T06:13:17.566Z,4.80
2018-07-19T06:15:46.188Z,4.70
2018-07-19T06:18:14.720Z,4.93
2018-07-19T06:20:43.299Z,4.30
2018-07-19T06:23:11.831Z,4.33
2018-07-19T06:25:40.397Z,4.08
2018-07-19T06:28:08.968Z,4.03
2018-07-19T06:30:37.552Z,4.05
2018-07-19T06:33:06.392Z,4.03
2018-07-19T06:35:34.972Z,4.70
2018-07-19T06:38:03.554Z,4.70
2018-07-19T06:40:32.129Z,4.67
2018-07-19T06:43:00.719Z,4.72
2018-07-19T06:45:29.304Z,4.07
2018-07-19T06:47:57.865Z,4.00
2018-07-19T06:50:26.425Z,4.57
2018-07-19T06:52:54.955Z,4.60
2018-07-19T06:55:23.509Z,3.77
2018-07-19T06:57:52.065Z,3.83
2018-07-19T07:00:20.656Z,4.13
2018-07-19T07:02:49.200Z,3.83
2018-07-19T07:05:17.769Z,4.30
2018-07-19T07:07:46.317Z,3.93
2018-07-19T07:10:14.877Z,3.97
2018-07-19T07:12:50.057Z,3.60
2018-07-19T07:15:18.624Z,3.90
2018-07-19T07:17:47.149Z,4.00
2018-07-19T07:20:15.720Z,3.67
2018-07-19T07:22:44.252Z,4.37
2018-07-19T07:25:12.828Z,4.33
2018-07-19T07:27:41.449Z,3.70
2018-07-19T07:30:10.025Z,3.85
2018-07-19T07:32:38.777Z,4.40
2018-07-19T07:35:07.444Z,3.67
2018-07-19T07:37:36.019Z,3.40
2018-07-19T07:40:05.013Z,3.93
2018-07-19T07:42:33.589Z,3.80
2018-07-19T07:45:02.153Z,4.10
2018-07-19T07:47:30.732Z,3.83
2018-07-19T07:49:59.247Z,3.53
2018-07-19T07:52:27.849Z,4.00
2018-07-19T07:54:56.416Z,3.63
2018-07-19T07:57:25.008Z,3.73
2018-07-19T07:59:53.516Z,3.53
2018-07-19T08:02:22.119Z,3.63
2018-07-19T08:04:50.660Z,3.47
2018-07-19T08:07:19.214Z,3.70
2018-07-19T08:09:47.756Z,3.23
2018-07-19T08:12:16.785Z,3.37
2018-07-19T08:14:45.455Z,3.13
2018-07-19T08:17:14.049Z,3.30
2018-07-19T08:19:42.581Z,3.67
2018-07-19T08:22:11.160Z,3.13
2018-07-19T08:24:39.784Z,3.98
2018-07-19T08:27:08.584Z,3.40
2018-07-19T08:29:37.193Z,3.25
2018-07-19T08:32:05.843Z,3.40
2018-07-19T08:34:34.379Z,3.37
2018-07-19T08:37:03.028Z,3.37
2018-07-19T08:39:31.565Z,3.57
2018-07-19T08:42:00.151Z,3.10
2018-07-19T08:44:28.719Z,3.30
2018-07-19T08:47:00.337Z,2.80
2018-07-19T08:49:28.985Z,3.30
2018-07-19T08:51:58.356Z,3.33
2018-07-19T08:54:30.146Z,2.90
2018-07-19T08:57:04.163Z,3.23
2018-07-19T08:59:41.045Z,3.17
2018-07-19T09:02:09.610Z,3.50
2018-07-19T09:04:38.169Z,3.30
2018-07-19T09:07:06.857Z,3.53
2018-07-19T09:09:35.389Z,3.13
2018-07-19T09:12:09.357Z,3.00
2018-07-19T09:14:45.432Z,2.80
2018-07-19T09:17:19.135Z,3.27
2018-07-19T09:19:54.413Z,2.90
2018-07-19T09:22:28.836Z,3.27
2018-07-19T09:25:05.817Z,2.63
2018-07-19T09:27:40.260Z,2.98
2018-07-19T09:30:18.943Z,2.73
2018-07-19T09:32:53.627Z,3.00
2018-07-19T09:35:28.758Z,2.93
2018-07-19T09:38:06.457Z,2.92
2018-07-19T09:40:43.382Z,3.03
2018-07-19T09:43:19.484Z,2.57
2018-07-19T09:45:55.768Z,2.77
2018-07-19T09:48:38.487Z,2.70
2018-07-19T09:51:17.523Z,2.60
2018-07-19T09:53:53.465Z,3.30
2018-07-19T09:59:10.425Z,2.87
2018-07-19T10:01:44.471Z,3.13
2018-07-19T10:04:24.269Z,2.83
2018-07-19T10:07:00.204Z,2.20
2018-07-19T10:09:41.121Z,2.87
2018-07-19T10:12:17.776Z,2.77
2018-07-19T10:14:50.300Z,2.50
2018-07-19T10:17:21.265Z,2.30
2018-07-19T10:19:53.901Z,3.00
2018-07-19T10:22:27.598Z,2.70
2018-07-19T10:24:56.133Z,2.80
2018-07-19T10:27:24.703Z,2.57
2018-07-19T10:29:53.240Z,2.23
2018-07-19T10:32:24.035Z,2.53
2018-07-19T10:34:52.553Z,2.60
2018-07-19T10:37:21.116Z,2.90
2018-07-19T10:39:49.678Z,2.67
2018-07-19T10:42:18.374Z,2.33
2018-07-19T10:44:46.953Z,2.50
2018-07-19T10:47:15.481Z,2.63
2018-07-19T10:49:44.050Z,2.60
2018-07-19T10:52:12.569Z,3.22
2018-07-19T10:54:41.580Z,2.53
2018-07-19T10:57:10.246Z,2.50
2018-07-19T10:59:38.801Z,2.55
2018-07-19T11:02:07.370Z,2.67
2018-07-19T11:04:35.916Z,2.50
2018-07-19T11:07:04.996Z,2.73
2018-07-19T11:09:33.836Z,2.37
2018-07-19T11:12:04.187Z,2.90
2018-07-19T11:14:32.800Z,2.60
2018-07-19T11:17:02.105Z,2.50
2018-07-19T11:19:30.939Z,2.50
2018-07-19T11:22:00.024Z,2.80
2018-07-19T11:24:29.600Z,2.75
2018-07-19T11:27:00.417Z,2.42
2018-07-19T11:29:28.969Z,2.30
2018-07-19T11:31:57.486Z,2.63
2018-07-19T11:34:26.026Z,2.43
2018-07-19T11:36:54.591Z,2.87
2018-07-19T11:39:23.138Z,2.70
2018-07-19T11:41:51.666Z,2.80
2018-07-19T11:44:20.228Z,2.47
2018-07-19T11:46:48.754Z,2.90
2018-07-19T11:49:17.397Z,2.30
2018-07-19T11:51:45.909Z,2.80
2018-07-19T11:54:14.475Z,2.73
2018-07-19T11:56:42.987Z,2.63
2018-07-19T11:59:11.549Z,2.57
2018-07-19T12:01:41.659Z,2.50
2018-07-19T12:04:10.280Z,2.75
2018-07-19T12:06:38.884Z,2.53
2018-07-19T12:09:10.181Z,2.77
2018-07-19T12:11:38.748Z,2.90
2018-07-19T12:14:07.395Z,2.53
2018-07-19T12:16:35.906Z,2.93
2018-07-19T12:19:04.509Z,2.83
2018-07-19T12:21:33.020Z,2.60
2018-07-19T12:24:01.581Z,3.03
2018-07-19T12:26:31.558Z,2.87
2018-07-19T12:29:00.112Z,2.93
2018-07-19T12:31:29.080Z,2.90
2018-07-19T12:33:57.692Z,2.77
2018-07-19T12:36:26.266Z,2.80
2018-07-19T12:38:54.789Z,2.70
2018-07-19T12:41:23.354Z,2.90
2018-07-19T12:43:51.888Z,3.00
2018-07-19T12:46:20.754Z,3.30
2018-07-19T12:48:49.312Z,3.00
2018-07-19T12:51:17.930Z,3.30
2018-07-19T12:53:46.446Z,3.10
2018-07-19T12:56:15.008Z,3.20
2018-07-19T12:58:43.524Z,2.87
2018-07-19T13:01:12.069Z,2.83
2018-07-19T13:03:40.592Z,2.83
2018-07-19T13:06:09.869Z,3.10
2018-07-19T13:08:39.778Z,2.87
2018-07-19T13:11:09.407Z,2.70
2018-07-19T13:13:38.877Z,2.93
2018-07-19T13:16:07.601Z,2.90
2018-07-19T13:18:37.595Z,2.57
2018-07-19T13:21:06.177Z,2.70
2018-07-19T13:23:34.709Z,2.63
2018-07-19T13:26:03.268Z,3.00
2018-07-19T13:28:33.225Z,2.53
2018-07-19T13:31:01.939Z,3.63
2018-07-19T13:33:30.425Z,2.90
2018-07-19T13:36:00.046Z,2.75
2018-07-19T13:38:28.607Z,3.10
2018-07-19T13:40:57.172Z,2.90
2018-07-19T13:43:25.680Z,3.43
2018-07-19T13:45:54.227Z,2.90
2018-07-19T13:48:24.397Z,2.90
2018-07-19T13:50:52.985Z,3.00
2018-07-19T13:53:34.851Z,2.53
2018-07-19T13:56:06.442Z,3.00
2018-07-19T13:58:37.309Z,2.97
2018-07-19T14:01:06.077Z,3.00
2018-07-19T14:03:36.631Z,2.50
2018-07-19T14:06:06.064Z,2.80
2018-07-19T14:08:36.113Z,3.17
2018-07-19T14:11:06.474Z,3.33
2018-07-19T14:13:36.431Z,2.90
2018-07-19T14:16:06.750Z,3.10
2018-07-19T14:18:35.264Z,3.00
2018-07-19T14:21:03.837Z,2.97
2018-07-19T14:23:32.375Z,3.07
2018-07-19T14:26:01.456Z,2.70
2018-07-19T14:28:30.156Z,2.50
2018-07-19T14:30:58.961Z,2.70
2018-07-19T14:33:28.197Z,2.50
2018-07-19T14:36:03.519Z,2.77
2018-07-19T14:38:35.176Z,2.70
2018-07-19T14:41:10.230Z,2.73
2018-07-19T14:43:46.554Z,2.25
2018-07-19T14:46:22.137Z,2.98
2018-07-19T14:48:56.636Z,2.37
2018-07-19T14:51:31.418Z,2.70
2018-07-19T14:54:05.199Z,2.80
2018-07-19T14:56:39.777Z,2.53
2018-07-19T14:59:19.209Z,2.20
2018-07-19T15:01:55.401Z,2.87
2018-07-19T15:04:30.560Z,2.33
2018-07-19T15:07:04.249Z,2.30
2018-07-19T15:09:39.747Z,2.47
2018-07-19T15:12:13.028Z,2.27
2018-07-19T15:14:46.385Z,2.33
2018-07-19T15:17:22.720Z,2.33
2018-07-19T15:19:58.258Z,2.50
2018-07-19T15:22:29.558Z,2.80
2018-07-19T15:25:03.150Z,2.33
2018-07-19T15:27:38.083Z,2.27
2018-07-19T15:30:11.047Z,2.35
2018-07-19T15:32:45.735Z,2.27
2018-07-19T15:35:19.384Z,2.50
2018-07-19T15:37:55.232Z,2.40
2018-07-19T15:40:29.221Z,2.40
2018-07-19T15:43:02.276Z,2.30
2018-07-19T15:45:31.465Z,2.37
2018-07-19T15:48:00.030Z,2.70
2018-07-19T15:50:30.062Z,2.77
2018-07-19T15:52:58.685Z,2.40
2018-07-19T15:55:28.276Z,2.80
2018-07-19T15:57:56.888Z,2.20
2018-07-19T16:00:25.433Z,2.50
2018-07-19T16:02:53.977Z,2.50
2018-07-19T16:05:22.807Z,2.47
2018-07-19T16:07:52.739Z,2.30
2018-07-19T16:10:21.835Z,2.27
2018-07-19T16:12:52.100Z,2.40
2018-07-19T16:15:20.645Z,2.60
2018-07-19T16:17:49.265Z,2.50
2018-07-19T16:20:18.721Z,2.47
2018-07-19T16:22:47.332Z,2.40
2018-07-19T16:25:16.937Z,2.40
2018-07-19T16:27:45.588Z,2.40
2018-07-19T16:30:14.099Z,2.53
2018-07-19T16:32:43.672Z,2.20
2018-07-19T16:35:12.580Z,2.40
2018-07-19T16:37:41.167Z,2.40
2018-07-19T16:40:09.813Z,2.20
2018-07-19T16:42:39.026Z,2.55
2018-07-19T16:45:07.612Z,2.43
2018-07-19T16:47:37.551Z,2.90
2018-07-19T16:50:10.049Z,2.43
2018-07-19T16:52:38.683Z,3.20
2018-07-19T16:55:07.888Z,2.57
2018-07-19T16:57:36.440Z,2.53
2018-07-19T17:00:05.665Z,2.33
2018-07-19T17:02:34.220Z,3.17
2018-07-19T17:05:03.326Z,2.83
2018-07-19T17:07:32.112Z,2.80
2018-07-19T17:10:02.153Z,2.57
2018-07-19T17:12:31.072Z,2.67
2018-07-19T17:14:59.755Z,2.43
2018-07-19T17:17:28.297Z,2.63
2018-07-19T17:19:56.951Z,2.40
2018-07-19T17:22:25.521Z,2.70
2018-07-19T17:24:54.060Z,2.60
2018-07-19T17:27:25.396Z,2.30
2018-07-19T17:29:54.693Z,2.50
2018-07-19T17:32:23.973Z,2.43
2018-07-19T17:34:53.480Z,2.77
2018-07-19T17:37:22.705Z,2.37
2018-07-19T17:39:52.145Z,2.43
2018-07-19T17:42:23.663Z,2.63
2018-07-19T17:44:53.753Z,2.60
2018-07-19T17:47:22.941Z,3.10
2018-07-19T17:49:52.308Z,2.53
2018-07-19T17:52:20.890Z,2.70
2018-07-19T17:54:49.783Z,2.85
2018-07-19T17:57:23.332Z,2.62
2018-07-19T17:59:56.622Z,2.43
2018-07-19T18:02:29.822Z,2.67
2018-07-19T18:05:02.619Z,2.40
2018-07-19T18:07:35.879Z,2.40
2018-07-19T18:10:09.432Z,2.80
2018-07-19T18:12:43.013Z,2.40
2018-07-19T18:15:16.016Z,2.45
2018-07-19T18:17:50.619Z,2.80
2018-07-19T18:20:23.786Z,3.20
2018-07-19T18:22:56.821Z,12.17
2018-07-19T18:25:28.733Z,5.83
2018-07-19T18:28:02.691Z,4.80
2018-07-19T18:30:36.288Z,4.30
2018-07-19T18:33:05.354Z,3.13
2018-07-19T18:35:34.072Z,3.30
2018-07-19T18:38:03.116Z,3.50
2018-07-19T18:40:31.994Z,3.30
2018-07-19T18:43:00.968Z,3.90
2018-07-19T18:45:29.593Z,3.77
2018-07-19T18:47:58.553Z,3.60
2018-07-19T18:50:27.260Z,4.00
2018-07-19T18:52:55.894Z,3.33
2018-07-19T18:55:24.631Z,3.50
2018-07-19T18:57:53.699Z,3.80
2018-07-19T19:00:22.623Z,3.70
2018-07-19T19:02:51.368Z,3.70
2018-07-19T19:05:20.032Z,3.80
2018-07-19T19:07:48.684Z,3.70
2018-07-19T19:10:17.278Z,4.17
2018-07-19T19:12:46.160Z,3.50
2018-07-19T19:15:14.920Z,3.83
2018-07-19T19:17:43.432Z,3.50
2018-07-19T19:20:12.269Z,3.53
2018-07-19T19:22:41.337Z,3.93
2018-07-19T19:25:09.937Z,3.50
2018-07-19T19:27:38.609Z,2.93
2018-07-19T19:30:07.776Z,3.40
2018-07-19T19:32:36.565Z,3.60
2018-07-19T19:35:05.258Z,3.33
2018-07-19T19:37:34.437Z,3.47
2018-07-19T19:40:03.579Z,2.97
2018-07-19T19:42:32.761Z,3.90
2018-07-19T19:45:01.623Z,3.17
2018-07-19T19:47:30.232Z,3.10
2018-07-19T19:49:58.789Z,3.13
2018-07-19T19:52:27.353Z,3.20
2018-07-19T19:54:55.885Z,3.40
2018-07-19T19:57:24.900Z,3.10
2018-07-19T19:59:53.710Z,3.47
2018-07-19T20:02:22.522Z,3.50
2018-07-19T20:04:57.660Z,3.50
2018-07-19T20:07:30.274Z,3.57
2018-07-19T20:10:03.730Z,3.30
2018-07-19T20:12:37.241Z,3.30
2018-07-19T20:15:06.070Z,3.33
2018-07-19T20:17:34.616Z,3.07
2018-07-19T20:22:30.053Z,3.10
2018-07-19T20:24:58.653Z,3.80
2018-07-19T20:27:33.444Z,3.37
2018-07-19T20:30:07.023Z,3.60
2018-07-19T20:32:43.759Z,3.00
2018-07-19T20:35:17.941Z,3.10
2018-07-19T20:37:53.675Z,3.53
2018-07-19T20:40:26.981Z,3.43
2018-07-19T20:43:01.061Z,3.87
2018-07-19T20:45:36.639Z,3.87
2018-07-19T20:48:11.410Z,3.43
2018-07-19T20:50:48.925Z,4.13
2018-07-19T20:53:22.949Z,3.70
2018-07-19T20:55:57.887Z,4.67
2018-07-19T20:58:30.376Z,4.27
2018-07-19T21:01:02.305Z,3.93
2018-07-19T21:03:35.122Z,3.70
2018-07-19T21:06:07.766Z,4.50
2018-07-19T21:08:40.485Z,4.67
2018-07-19T21:11:14.253Z,4.30
2018-07-19T21:13:47.017Z,4.20
2018-07-19T21:16:21.439Z,3.80
2018-07-19T21:18:54.042Z,3.77
2018-07-19T21:21:26.564Z,3.50
2018-07-19T21:24:01.654Z,3.57
2018-07-19T21:26:35.773Z,3.70
2018-07-19T21:29:09.604Z,3.77
2018-07-19T21:31:43.087Z,4.00
2018-07-19T21:34:16.670Z,3.22
2018-07-19T21:36:51.592Z,3.33
2018-07-19T21:39:25.068Z,3.52
2018-07-19T21:41:59.617Z,3.40
2018-07-19T21:44:33.382Z,3.67
2018-07-19T21:47:06.114Z,3.70
2018-07-19T21:49:38.824Z,3.73
2018-07-19T21:52:12.816Z,4.03
2018-07-19T21:54:45.904Z,3.60
2018-07-19T21:57:21.027Z,4.20
2018-07-19T21:59:53.549Z,3.80
2018-07-19T22:02:23.428Z,4.12
2018-07-19T22:04:52.500Z,3.50
2018-07-19T22:07:21.538Z,3.67
2018-07-19T22:09:50.068Z,4.13
2018-07-19T22:12:20.239Z,4.20
2018-07-19T22:14:48.763Z,4.00
2018-07-19T22:17:17.314Z,4.03
2018-07-19T22:19:45.837Z,3.73
2018-07-19T22:22:14.416Z,3.80
2018-07-19T22:24:48.167Z,4.13
2018-07-19T22:27:18.205Z,4.00
2018-07-19T22:29:48.049Z,4.65
2018-07-19T22:32:19.849Z,4.13
2018-07-19T22:34:50.459Z,4.23
2018-07-19T22:37:21.166Z,4.33
2018-07-19T22:39:50.910Z,4.53
2018-07-19T22:42:20.890Z,4.95
2018-07-19T22:44:51.208Z,4.93
2018-07-19T22:47:21.101Z,4.37
2018-07-19T22:49:51.152Z,4.63
2018-07-19T22:52:21.621Z,4.65
2018-07-19T22:54:52.231Z,4.70
2018-07-19T22:57:22.599Z,4.20
2018-07-19T22:59:52.768Z,4.00
2018-07-19T23:02:22.690Z,4.30
2018-07-19T23:04:52.860Z,4.27
2018-07-19T23:07:22.927Z,4.33
2018-07-19T23:09:53.149Z,4.67
2018-07-19T23:12:25.884Z,4.90
2018-07-19T23:14:56.557Z,4.07
2018-07-19T23:17:26.944Z,3.90
2018-07-19T23:19:56.293Z,4.30
2018-07-19T23:22:27.253Z,4.47
2018-07-19T23:24:57.341Z,4.70
2018-07-19T23:27:27.217Z,4.60
2018-07-19T23:29:57.313Z,4.47
2018-07-19T23:32:27.264Z,4.30
2018-07-19T23:34:56.202Z,4.27
2018-07-19T23:37:31.712Z,4.20
2018-07-19T23:40:07.538Z,4.40
2018-07-19T23:42:40.093Z,5.33
2018-07-19T23:45:26.420Z,4.30
2018-07-19T23:47:55.768Z,4.20
2018-07-19T23:50:24.308Z,4.30
2018-07-19T23:52:52.855Z,4.60
2018-07-19T23:55:21.760Z,4.90
2018-07-19T23:57:50.296Z,5.35
